sensor_id;sensor_type;location;lat;lon;timestamp;P1;durP1;ratioP1;P2;durP2;ratioP2
55483;SDS011;41345;51.704;5.146;2023-04-23T00:04:32;138.07;;;99.88;;
55483;SDS011;41345;51.704;5.146;2023-04-23T00:09:35;127.95;;;97.65;;
55483;SDS011;41345;51.704;5.146;2023-04-23T00:14:36;139.38;;;100.70;;
55483;SDS011;41345;51.704;5.146;2023-04-23T00:19:36;140.25;;;104.97;;
55483;SDS011;41345;51.704;5.146;2023-04-23T00:24:37;126.70;;;98.13;;
55483;SDS011;41345;51.704;5.146;2023-04-23T00:29:37;113.47;;;96.45;;
55483;SDS011;41345;51.704;5.146;2023-04-23T00:34:38;121.90;;;96.23;;
55483;SDS011;41345;51.704;5.146;2023-04-23T00:39:38;122.53;;;94.43;;
55483;SDS011;41345;51.704;5.146;2023-04-23T00:44:39;130.80;;;97.07;;
55483;SDS011;41345;51.704;5.146;2023-04-23T00:49:40;117.25;;;96.00;;
55483;SDS011;41345;51.704;5.146;2023-04-23T00:54:41;124.32;;;98.38;;
55483;SDS011;41345;51.704;5.146;2023-04-23T00:59:42;115.17;;;95.23;;
55483;SDS011;41345;51.704;5.146;2023-04-23T01:04:42;104.50;;;91.60;;
55483;SDS011;41345;51.704;5.146;2023-04-23T01:09:43;110.88;;;91.68;;
55483;SDS011;41345;51.704;5.146;2023-04-23T01:14:43;112.18;;;92.22;;
55483;SDS011;41345;51.704;5.146;2023-04-23T01:19:44;105.15;;;90.35;;
55483;SDS011;41345;51.704;5.146;2023-04-23T01:24:45;121.60;;;96.05;;
55483;SDS011;41345;51.704;5.146;2023-04-23T01:29:46;107.18;;;92.60;;
55483;SDS011;41345;51.704;5.146;2023-04-23T01:34:46;116.57;;;96.20;;
55483;SDS011;41345;51.704;5.146;2023-04-23T01:39:47;108.80;;;91.85;;
55483;SDS011;41345;51.704;5.146;2023-04-23T01:44:47;121.90;;;94.43;;
55483;SDS011;41345;51.704;5.146;2023-04-23T01:49:48;109.03;;;94.55;;
55483;SDS011;41345;51.704;5.146;2023-04-23T01:54:48;126.43;;;96.13;;
55483;SDS011;41345;51.704;5.146;2023-04-23T01:59:49;106.32;;;94.88;;
55483;SDS011;41345;51.704;5.146;2023-04-23T02:04:49;102.15;;;90.88;;
55483;SDS011;41345;51.704;5.146;2023-04-23T02:09:52;104.97;;;91.53;;
55483;SDS011;41345;51.704;5.146;2023-04-23T02:14:52;102.95;;;91.57;;
55483;SDS011;41345;51.704;5.146;2023-04-23T02:19:53;99.40;;;89.30;;
55483;SDS011;41345;51.704;5.146;2023-04-23T02:24:54;97.38;;;87.82;;
55483;SDS011;41345;51.704;5.146;2023-04-23T02:29:55;98.35;;;88.10;;
55483;SDS011;41345;51.704;5.146;2023-04-23T02:34:55;95.50;;;85.90;;
55483;SDS011;41345;51.704;5.146;2023-04-23T02:39:57;93.60;;;84.80;;
55483;SDS011;41345;51.704;5.146;2023-04-23T02:44:58;93.47;;;84.83;;
55483;SDS011;41345;51.704;5.146;2023-04-23T02:49:58;93.13;;;84.30;;
55483;SDS011;41345;51.704;5.146;2023-04-23T02:55:02;89.15;;;81.07;;
55483;SDS011;41345;51.704;5.146;2023-04-23T03:00:03;87.43;;;79.22;;
55483;SDS011;41345;51.704;5.146;2023-04-23T03:05:06;85.80;;;78.00;;
55483;SDS011;41345;51.704;5.146;2023-04-23T03:10:07;86.90;;;79.15;;
55483;SDS011;41345;51.704;5.146;2023-04-23T03:15:07;87.00;;;79.20;;
55483;SDS011;41345;51.704;5.146;2023-04-23T03:20:08;91.32;;;83.13;;
55483;SDS011;41345;51.704;5.146;2023-04-23T03:25:10;89.20;;;81.45;;
55483;SDS011;41345;51.704;5.146;2023-04-23T03:30:11;87.85;;;79.80;;
55483;SDS011;41345;51.704;5.146;2023-04-23T03:35:11;87.20;;;79.05;;
55483;SDS011;41345;51.704;5.146;2023-04-23T03:40:11;90.00;;;81.70;;
55483;SDS011;41345;51.704;5.146;2023-04-23T03:45:13;84.40;;;76.78;;
55483;SDS011;41345;51.704;5.146;2023-04-23T03:50:13;87.60;;;79.03;;
55483;SDS011;41345;51.704;5.146;2023-04-23T03:55:14;85.30;;;77.60;;
55483;SDS011;41345;51.704;5.146;2023-04-23T04:00:14;85.30;;;76.70;;
55483;SDS011;41345;51.704;5.146;2023-04-23T04:05:14;87.25;;;79.10;;
55483;SDS011;41345;51.704;5.146;2023-04-23T04:10:15;82.07;;;74.78;;
55483;SDS011;41345;51.704;5.146;2023-04-23T04:15:16;88.03;;;79.93;;
55483;SDS011;41345;51.704;5.146;2023-04-23T04:20:18;83.75;;;75.82;;
55483;SDS011;41345;51.704;5.146;2023-04-23T04:25:19;79.70;;;72.47;;
55483;SDS011;41345;51.704;5.146;2023-04-23T04:30:21;95.57;;;87.10;;
55483;SDS011;41345;51.704;5.146;2023-04-23T04:35:21;92.97;;;84.28;;
55483;SDS011;41345;51.704;5.146;2023-04-23T04:40:22;86.88;;;79.45;;
55483;SDS011;41345;51.704;5.146;2023-04-23T04:45:22;86.53;;;78.63;;
55483;SDS011;41345;51.704;5.146;2023-04-23T04:50:22;83.60;;;75.63;;
55483;SDS011;41345;51.704;5.146;2023-04-23T04:55:23;88.20;;;80.10;;
55483;SDS011;41345;51.704;5.146;2023-04-23T05:00:24;81.47;;;74.28;;
55483;SDS011;41345;51.704;5.146;2023-04-23T05:05:27;81.55;;;73.85;;
55483;SDS011;41345;51.704;5.146;2023-04-23T05:10:29;85.25;;;77.10;;
55483;SDS011;41345;51.704;5.146;2023-04-23T05:15:30;79.80;;;72.70;;
55483;SDS011;41345;51.704;5.146;2023-04-23T05:20:30;83.03;;;75.40;;
55483;SDS011;41345;51.704;5.146;2023-04-23T05:25:30;80.67;;;73.87;;
55483;SDS011;41345;51.704;5.146;2023-04-23T05:30:31;75.80;;;68.90;;
55483;SDS011;41345;51.704;5.146;2023-04-23T05:35:31;83.78;;;76.47;;
55483;SDS011;41345;51.704;5.146;2023-04-23T05:40:31;82.67;;;75.50;;
55483;SDS011;41345;51.704;5.146;2023-04-23T05:45:32;78.45;;;71.72;;
55483;SDS011;41345;51.704;5.146;2023-04-23T05:50:32;81.60;;;74.35;;
55483;SDS011;41345;51.704;5.146;2023-04-23T05:55:32;77.88;;;71.15;;
55483;SDS011;41345;51.704;5.146;2023-04-23T06:00:33;78.87;;;72.03;;
55483;SDS011;41345;51.704;5.146;2023-04-23T06:05:34;74.22;;;67.90;;
55483;SDS011;41345;51.704;5.146;2023-04-23T06:10:35;71.90;;;65.95;;
55483;SDS011;41345;51.704;5.146;2023-04-23T06:15:36;77.10;;;70.47;;
55483;SDS011;41345;51.704;5.146;2023-04-23T06:20:36;70.27;;;64.10;;
55483;SDS011;41345;51.704;5.146;2023-04-23T06:25:36;72.53;;;66.50;;
55483;SDS011;41345;51.704;5.146;2023-04-23T06:30:37;63.20;;;57.97;;
55483;SDS011;41345;51.704;5.146;2023-04-23T06:35:37;68.90;;;63.42;;
55483;SDS011;41345;51.704;5.146;2023-04-23T06:40:37;62.53;;;57.63;;
55483;SDS011;41345;51.704;5.146;2023-04-23T06:45:38;59.33;;;54.43;;
55483;SDS011;41345;51.704;5.146;2023-04-23T06:50:38;56.05;;;51.17;;
55483;SDS011;41345;51.704;5.146;2023-04-23T06:55:39;57.33;;;52.53;;
55483;SDS011;41345;51.704;5.146;2023-04-23T07:00:39;51.30;;;47.47;;
55483;SDS011;41345;51.704;5.146;2023-04-23T07:05:40;48.50;;;44.95;;
55483;SDS011;41345;51.704;5.146;2023-04-23T07:10:40;49.13;;;45.53;;
55483;SDS011;41345;51.704;5.146;2023-04-23T07:15:41;43.00;;;39.88;;
55483;SDS011;41345;51.704;5.146;2023-04-23T07:20:41;45.35;;;42.08;;
55483;SDS011;41345;51.704;5.146;2023-04-23T07:25:41;45.07;;;42.00;;
55483;SDS011;41345;51.704;5.146;2023-04-23T07:30:42;41.17;;;38.27;;
55483;SDS011;41345;51.704;5.146;2023-04-23T07:35:42;39.80;;;36.85;;
55483;SDS011;41345;51.704;5.146;2023-04-23T07:40:42;43.75;;;40.58;;
55483;SDS011;41345;51.704;5.146;2023-04-23T07:45:43;30.83;;;28.03;;
55483;SDS011;41345;51.704;5.146;2023-04-23T07:50:43;32.28;;;29.48;;
55483;SDS011;41345;51.704;5.146;2023-04-23T07:55:43;23.77;;;21.58;;
55483;SDS011;41345;51.704;5.146;2023-04-23T08:00:44;27.20;;;24.33;;
55483;SDS011;41345;51.704;5.146;2023-04-23T08:05:45;21.77;;;19.67;;
55483;SDS011;41345;51.704;5.146;2023-04-23T08:10:45;25.02;;;22.90;;
55483;SDS011;41345;51.704;5.146;2023-04-23T08:15:46;29.67;;;27.58;;
55483;SDS011;41345;51.704;5.146;2023-04-23T08:20:48;18.48;;;16.48;;
55483;SDS011;41345;51.704;5.146;2023-04-23T08:25:48;27.55;;;25.13;;
55483;SDS011;41345;51.704;5.146;2023-04-23T08:30:48;19.30;;;14.03;;
55483;SDS011;41345;51.704;5.146;2023-04-23T08:35:49;16.48;;;14.25;;
55483;SDS011;41345;51.704;5.146;2023-04-23T08:40:49;17.13;;;13.05;;
55483;SDS011;41345;51.704;5.146;2023-04-23T08:45:51;13.52;;;12.13;;
55483;SDS011;41345;51.704;5.146;2023-04-23T08:50:52;16.42;;;14.18;;
55483;SDS011;41345;51.704;5.146;2023-04-23T08:55:53;13.85;;;6.30;;
55483;SDS011;41345;51.704;5.146;2023-04-23T09:00:54;12.95;;;7.45;;
55483;SDS011;41345;51.704;5.146;2023-04-23T09:05:57;18.13;;;8.75;;
55483;SDS011;41345;51.704;5.146;2023-04-23T09:10:58;13.97;;;5.37;;
55483;SDS011;41345;51.704;5.146;2023-04-23T09:15:59;12.68;;;4.72;;
55483;SDS011;41345;51.704;5.146;2023-04-23T09:21:00;11.98;;;4.28;;
55483;SDS011;41345;51.704;5.146;2023-04-23T09:26:04;13.18;;;3.67;;
55483;SDS011;41345;51.704;5.146;2023-04-23T09:31:05;12.27;;;3.03;;
55483;SDS011;41345;51.704;5.146;2023-04-23T09:36:09;8.32;;;2.42;;
55483;SDS011;41345;51.704;5.146;2023-04-23T09:41:28;8.45;;;2.80;;
55483;SDS011;41345;51.704;5.146;2023-04-23T09:46:40;11.40;;;2.70;;
55483;SDS011;41345;51.704;5.146;2023-04-23T09:51:45;10.30;;;2.63;;
55483;SDS011;41345;51.704;5.146;2023-04-23T09:56:49;11.90;;;2.53;;
55483;SDS011;41345;51.704;5.146;2023-04-23T10:01:50;10.40;;;2.30;;
55483;SDS011;41345;51.704;5.146;2023-04-23T10:06:55;7.25;;;2.38;;
55483;SDS011;41345;51.704;5.146;2023-04-23T10:11:56;9.45;;;2.03;;
55483;SDS011;41345;51.704;5.146;2023-04-23T10:17:01;9.60;;;2.30;;
55483;SDS011;41345;51.704;5.146;2023-04-23T10:22:03;8.60;;;1.88;;
55483;SDS011;41345;51.704;5.146;2023-04-23T10:27:09;7.90;;;2.05;;
55483;SDS011;41345;51.704;5.146;2023-04-23T10:32:10;11.27;;;1.90;;
55483;SDS011;41345;51.704;5.146;2023-04-23T10:37:10;9.95;;;1.77;;
55483;SDS011;41345;51.704;5.146;2023-04-23T10:42:11;8.65;;;1.85;;
55483;SDS011;41345;51.704;5.146;2023-04-23T10:47:16;6.78;;;1.70;;
55483;SDS011;41345;51.704;5.146;2023-04-23T10:52:16;9.05;;;2.10;;
55483;SDS011;41345;51.704;5.146;2023-04-23T10:57:17;9.52;;;2.00;;
55483;SDS011;41345;51.704;5.146;2023-04-23T11:02:18;8.38;;;2.03;;
55483;SDS011;41345;51.704;5.146;2023-04-23T11:07:18;6.40;;;1.75;;
55483;SDS011;41345;51.704;5.146;2023-04-23T11:22:35;8.95;;;2.08;;
55483;SDS011;41345;51.704;5.146;2023-04-23T11:32:36;6.47;;;1.58;;
55483;SDS011;41345;51.704;5.146;2023-04-23T11:37:39;7.22;;;1.70;;
55483;SDS011;41345;51.704;5.146;2023-04-23T11:42:40;5.28;;;1.83;;
55483;SDS011;41345;51.704;5.146;2023-04-23T11:47:43;8.27;;;2.15;;
55483;SDS011;41345;51.704;5.146;2023-04-23T11:52:44;7.68;;;2.25;;
55483;SDS011;41345;51.704;5.146;2023-04-23T11:57:45;8.05;;;2.03;;
55483;SDS011;41345;51.704;5.146;2023-04-23T12:02:52;7.13;;;2.15;;
55483;SDS011;41345;51.704;5.146;2023-04-23T12:07:53;9.63;;;2.25;;
55483;SDS011;41345;51.704;5.146;2023-04-23T12:12:53;5.95;;;1.60;;
55483;SDS011;41345;51.704;5.146;2023-04-23T12:18:15;10.80;;;2.38;;
55483;SDS011;41345;51.704;5.146;2023-04-23T12:23:14;6.90;;;1.50;;
55483;SDS011;41345;51.704;5.146;2023-04-23T12:28:15;12.18;;;1.83;;
55483;SDS011;41345;51.704;5.146;2023-04-23T12:33:15;5.80;;;1.60;;
55483;SDS011;41345;51.704;5.146;2023-04-23T12:38:22;10.32;;;1.55;;
55483;SDS011;41345;51.704;5.146;2023-04-23T12:43:23;9.60;;;1.40;;
55483;SDS011;41345;51.704;5.146;2023-04-23T12:48:24;7.40;;;1.27;;
55483;SDS011;41345;51.704;5.146;2023-04-23T12:53:24;7.93;;;1.05;;
55483;SDS011;41345;51.704;5.146;2023-04-23T12:58:25;7.35;;;1.33;;
55483;SDS011;41345;51.704;5.146;2023-04-23T13:03:26;5.28;;;1.30;;
55483;SDS011;41345;51.704;5.146;2023-04-23T13:08:27;8.88;;;1.88;;
55483;SDS011;41345;51.704;5.146;2023-04-23T13:13:27;5.25;;;1.23;;
55483;SDS011;41345;51.704;5.146;2023-04-23T13:18:27;8.05;;;1.50;;
55483;SDS011;41345;51.704;5.146;2023-04-23T13:23:28;8.10;;;1.73;;
55483;SDS011;41345;51.704;5.146;2023-04-23T13:28:28;7.03;;;1.40;;
55483;SDS011;41345;51.704;5.146;2023-04-23T13:33:29;5.53;;;1.40;;
55483;SDS011;41345;51.704;5.146;2023-04-23T13:38:29;7.55;;;1.55;;
55483;SDS011;41345;51.704;5.146;2023-04-23T13:43:30;7.90;;;1.65;;
55483;SDS011;41345;51.704;5.146;2023-04-23T13:48:30;5.87;;;1.40;;
55483;SDS011;41345;51.704;5.146;2023-04-23T13:53:31;8.97;;;1.30;;
55483;SDS011;41345;51.704;5.146;2023-04-23T13:58:31;9.25;;;1.55;;
55483;SDS011;41345;51.704;5.146;2023-04-23T14:03:31;5.55;;;1.27;;
55483;SDS011;41345;51.704;5.146;2023-04-23T14:08:32;7.07;;;1.40;;
55483;SDS011;41345;51.704;5.146;2023-04-23T14:13:32;5.85;;;1.10;;
55483;SDS011;41345;51.704;5.146;2023-04-23T14:18:32;6.50;;;1.40;;
55483;SDS011;41345;51.704;5.146;2023-04-23T14:28:49;8.27;;;3.10;;
55483;SDS011;41345;51.704;5.146;2023-04-23T14:33:50;9.02;;;4.80;;
55483;SDS011;41345;51.704;5.146;2023-04-23T14:38:51;13.55;;;12.27;;
55483;SDS011;41345;51.704;5.146;2023-04-23T14:43:51;20.50;;;18.90;;
55483;SDS011;41345;51.704;5.146;2023-04-23T14:48:51;22.75;;;21.00;;
55483;SDS011;41345;51.704;5.146;2023-04-23T14:53:52;27.13;;;25.27;;
55483;SDS011;41345;51.704;5.146;2023-04-23T14:58:52;27.15;;;25.35;;
55483;SDS011;41345;51.704;5.146;2023-04-23T15:03:52;30.75;;;28.77;;
55483;SDS011;41345;51.704;5.146;2023-04-23T15:08:52;34.07;;;31.87;;
55483;SDS011;41345;51.704;5.146;2023-04-23T15:19:26;34.95;;;32.83;;
55483;SDS011;41345;51.704;5.146;2023-04-23T15:24:26;37.50;;;34.92;;
55483;SDS011;41345;51.704;5.146;2023-04-23T15:29:26;38.83;;;36.28;;
55483;SDS011;41345;51.704;5.146;2023-04-23T15:34:27;38.33;;;35.83;;
55483;SDS011;41345;51.704;5.146;2023-04-23T15:39:27;36.10;;;33.63;;
55483;SDS011;41345;51.704;5.146;2023-04-23T15:44:29;40.80;;;38.30;;
55483;SDS011;41345;51.704;5.146;2023-04-23T15:49:29;39.67;;;36.97;;
55483;SDS011;41345;51.704;5.146;2023-04-23T15:54:29;40.13;;;37.57;;
55483;SDS011;41345;51.704;5.146;2023-04-23T15:59:30;40.75;;;38.20;;
55483;SDS011;41345;51.704;5.146;2023-04-23T16:04:30;41.42;;;38.65;;
55483;SDS011;41345;51.704;5.146;2023-04-23T16:09:30;41.33;;;38.97;;
55483;SDS011;41345;51.704;5.146;2023-04-23T16:14:31;49.90;;;46.85;;
55483;SDS011;41345;51.704;5.146;2023-04-23T16:19:31;44.83;;;42.20;;
55483;SDS011;41345;51.704;5.146;2023-04-23T16:24:32;43.38;;;40.35;;
55483;SDS011;41345;51.704;5.146;2023-04-23T16:29:32;45.60;;;42.80;;
55483;SDS011;41345;51.704;5.146;2023-04-23T16:34:33;41.83;;;39.10;;
55483;SDS011;41345;51.704;5.146;2023-04-23T16:39:33;51.67;;;48.30;;
55483;SDS011;41345;51.704;5.146;2023-04-23T16:44:34;43.40;;;40.45;;
55483;SDS011;41345;51.704;5.146;2023-04-23T16:49:34;44.15;;;41.53;;
55483;SDS011;41345;51.704;5.146;2023-04-23T16:54:35;47.33;;;44.17;;
55483;SDS011;41345;51.704;5.146;2023-04-23T16:59:35;47.08;;;44.22;;
55483;SDS011;41345;51.704;5.146;2023-04-23T17:04:36;48.92;;;45.92;;
55483;SDS011;41345;51.704;5.146;2023-04-23T17:09:36;50.30;;;47.20;;
55483;SDS011;41345;51.704;5.146;2023-04-23T17:14:37;49.30;;;46.33;;
55483;SDS011;41345;51.704;5.146;2023-04-23T17:19:37;45.42;;;42.53;;
55483;SDS011;41345;51.704;5.146;2023-04-23T17:24:38;47.97;;;44.75;;
55483;SDS011;41345;51.704;5.146;2023-04-23T17:29:39;44.03;;;41.20;;
55483;SDS011;41345;51.704;5.146;2023-04-23T17:34:39;45.65;;;42.97;;
55483;SDS011;41345;51.704;5.146;2023-04-23T17:39:39;47.60;;;44.70;;
55483;SDS011;41345;51.704;5.146;2023-04-23T17:44:39;45.90;;;43.22;;
55483;SDS011;41345;51.704;5.146;2023-04-23T17:49:40;46.17;;;43.40;;
55483;SDS011;41345;51.704;5.146;2023-04-23T17:54:40;50.22;;;47.05;;
55483;SDS011;41345;51.704;5.146;2023-04-23T17:59:41;55.83;;;52.35;;
55483;SDS011;41345;51.704;5.146;2023-04-23T18:04:41;49.67;;;46.53;;
55483;SDS011;41345;51.704;5.146;2023-04-23T18:09:41;52.60;;;49.37;;
55483;SDS011;41345;51.704;5.146;2023-04-23T18:14:42;48.55;;;45.42;;
55483;SDS011;41345;51.704;5.146;2023-04-23T18:19:42;52.78;;;49.35;;
55483;SDS011;41345;51.704;5.146;2023-04-23T18:24:42;52.43;;;49.17;;
55483;SDS011;41345;51.704;5.146;2023-04-23T18:29:43;49.28;;;46.15;;
55483;SDS011;41345;51.704;5.146;2023-04-23T18:34:44;52.72;;;49.33;;
55483;SDS011;41345;51.704;5.146;2023-04-23T18:39:44;51.05;;;47.85;;
55483;SDS011;41345;51.704;5.146;2023-04-23T18:44:44;52.70;;;49.40;;
55483;SDS011;41345;51.704;5.146;2023-04-23T18:49:45;52.72;;;49.33;;
55483;SDS011;41345;51.704;5.146;2023-04-23T18:54:51;53.80;;;50.30;;
55483;SDS011;41345;51.704;5.146;2023-04-23T18:59:51;53.22;;;49.85;;
55483;SDS011;41345;51.704;5.146;2023-04-23T19:04:51;53.33;;;49.72;;
55483;SDS011;41345;51.704;5.146;2023-04-23T19:09:52;48.50;;;45.60;;
55483;SDS011;41345;51.704;5.146;2023-04-23T19:14:52;45.53;;;43.03;;
55483;SDS011;41345;51.704;5.146;2023-04-23T19:19:52;43.78;;;41.47;;
55483;SDS011;41345;51.704;5.146;2023-04-23T19:24:53;42.90;;;40.63;;
55483;SDS011;41345;51.704;5.146;2023-04-23T19:29:53;44.88;;;42.30;;
55483;SDS011;41345;51.704;5.146;2023-04-23T19:34:55;43.03;;;40.75;;
55483;SDS011;41345;51.704;5.146;2023-04-23T19:39:55;46.63;;;44.07;;
55483;SDS011;41345;51.704;5.146;2023-04-23T19:44:56;45.58;;;42.97;;
55483;SDS011;41345;51.704;5.146;2023-04-23T19:49:56;47.40;;;44.80;;
55483;SDS011;41345;51.704;5.146;2023-04-23T19:54:56;45.30;;;42.70;;
55483;SDS011;41345;51.704;5.146;2023-04-23T19:59:57;44.47;;;41.97;;
55483;SDS011;41345;51.704;5.146;2023-04-23T20:04:57;48.17;;;45.47;;
55483;SDS011;41345;51.704;5.146;2023-04-23T20:09:59;48.08;;;45.28;;
55483;SDS011;41345;51.704;5.146;2023-04-23T20:14:59;46.08;;;43.40;;
55483;SDS011;41345;51.704;5.146;2023-04-23T20:20:00;47.00;;;44.40;;
55483;SDS011;41345;51.704;5.146;2023-04-23T20:25:05;50.38;;;47.58;;
55483;SDS011;41345;51.704;5.146;2023-04-23T20:30:06;48.22;;;45.42;;
55483;SDS011;41345;51.704;5.146;2023-04-23T20:35:08;50.78;;;47.90;;
55483;SDS011;41345;51.704;5.146;2023-04-23T20:40:09;46.80;;;44.17;;
55483;SDS011;41345;51.704;5.146;2023-04-23T20:45:13;53.05;;;50.03;;
55483;SDS011;41345;51.704;5.146;2023-04-23T20:50:13;55.92;;;52.72;;
55483;SDS011;41345;51.704;5.146;2023-04-23T20:55:13;55.97;;;52.67;;
55483;SDS011;41345;51.704;5.146;2023-04-23T21:00:14;57.60;;;54.10;;
55483;SDS011;41345;51.704;5.146;2023-04-23T21:05:14;60.67;;;56.97;;
55483;SDS011;41345;51.704;5.146;2023-04-23T21:10:15;51.17;;;48.10;;
55483;SDS011;41345;51.704;5.146;2023-04-23T21:15:15;56.78;;;53.47;;
55483;SDS011;41345;51.704;5.146;2023-04-23T21:20:16;50.85;;;47.63;;
55483;SDS011;41345;51.704;5.146;2023-04-23T21:25:16;56.58;;;53.22;;
55483;SDS011;41345;51.704;5.146;2023-04-23T21:30:21;51.65;;;48.67;;
55483;SDS011;41345;51.704;5.146;2023-04-23T21:35:22;45.83;;;43.28;;
55483;SDS011;41345;51.704;5.146;2023-04-23T21:40:23;49.90;;;47.10;;
55483;SDS011;41345;51.704;5.146;2023-04-23T21:45:23;47.17;;;44.47;;
55483;SDS011;41345;51.704;5.146;2023-04-23T21:50:24;53.17;;;50.27;;
55483;SDS011;41345;51.704;5.146;2023-04-23T21:55:25;47.38;;;44.38;;
55483;SDS011;41345;51.704;5.146;2023-04-23T22:00:25;47.83;;;45.00;;
55483;SDS011;41345;51.704;5.146;2023-04-23T22:05:26;48.58;;;45.78;;
55483;SDS011;41345;51.704;5.146;2023-04-23T22:10:27;50.08;;;47.20;;
55483;SDS011;41345;51.704;5.146;2023-04-23T22:15:27;48.63;;;45.93;;
55483;SDS011;41345;51.704;5.146;2023-04-23T22:20:28;58.30;;;55.00;;
55483;SDS011;41345;51.704;5.146;2023-04-23T22:25:29;56.00;;;52.67;;
55483;SDS011;41345;51.704;5.146;2023-04-23T22:30:29;56.17;;;52.88;;
55483;SDS011;41345;51.704;5.146;2023-04-23T22:35:30;58.05;;;54.38;;
55483;SDS011;41345;51.704;5.146;2023-04-23T22:40:30;60.15;;;56.35;;
55483;SDS011;41345;51.704;5.146;2023-04-23T22:45:30;54.85;;;51.40;;
55483;SDS011;41345;51.704;5.146;2023-04-23T22:50:31;57.80;;;53.90;;
55483;SDS011;41345;51.704;5.146;2023-04-23T22:55:31;53.55;;;50.15;;
55483;SDS011;41345;51.704;5.146;2023-04-23T23:00:31;61.67;;;57.67;;
55483;SDS011;41345;51.704;5.146;2023-04-23T23:05:32;58.97;;;55.53;;
55483;SDS011;41345;51.704;5.146;2023-04-23T23:10:32;57.40;;;54.03;;
55483;SDS011;41345;51.704;5.146;2023-04-23T23:15:33;61.13;;;57.53;;
55483;SDS011;41345;51.704;5.146;2023-04-23T23:20:33;60.33;;;56.72;;
55483;SDS011;41345;51.704;5.146;2023-04-23T23:25:35;61.63;;;58.03;;
55483;SDS011;41345;51.704;5.146;2023-04-23T23:30:37;62.30;;;58.72;;
55483;SDS011;41345;51.704;5.146;2023-04-23T23:35:37;60.15;;;56.60;;
55483;SDS011;41345;51.704;5.146;2023-04-23T23:40:38;61.63;;;57.70;;
55483;SDS011;41345;51.704;5.146;2023-04-23T23:45:38;63.57;;;59.43;;
55483;SDS011;41345;51.704;5.146;2023-04-23T23:50:38;67.28;;;62.53;;
55483;SDS011;41345;51.704;5.146;2023-04-23T23:55:38;68.63;;;63.73;;
